createdAt,value
2022-09-03T00:01:09.277Z,4114.3
2022-09-03T00:06:44.151Z,4112.8
2022-09-03T00:12:19.054Z,4111.3
2022-09-03T00:17:54.354Z,4112.3
2022-09-03T00:23:50.989Z,4110.5
2022-09-03T00:29:25.793Z,4112.5
2022-09-03T00:35:00.714Z,4111.6
2022-09-03T00:40:35.700Z,4111.3
2022-09-03T00:46:11.649Z,4111.1
2022-09-03T00:51:46.517Z,4112.8
2022-09-03T00:57:21.724Z,4111.3
2022-09-03T01:02:56.928Z,4109.8
2022-09-03T01:08:31.974Z,4109.4
2022-09-03T01:14:07.139Z,4108.4
2022-09-03T01:19:43.172Z,4108.4
2022-09-03T01:25:58.121Z,4106.6
2022-09-03T01:31:32.906Z,4111.5
2022-09-03T01:37:08.098Z,4106.6
2022-09-03T01:43:04.971Z,4105.3
2022-09-03T01:48:38.601Z,4109.1
2022-09-03T01:54:22.667Z,4109.1
2022-09-03T01:59:57.332Z,4106.9
2022-09-03T02:05:32.423Z,4106.9
2022-09-03T02:11:07.225Z,4105.3
2022-09-03T02:16:42.002Z,4107.1
2022-09-03T02:22:39.023Z,4104.1
2022-09-03T02:28:19.446Z,4106.6
2022-09-03T02:33:54.517Z,4104.4
2022-09-03T02:39:30.415Z,4103.6
2022-09-03T02:45:05.348Z,4105.9
2022-09-03T02:50:40.050Z,4105.9
2022-09-03T02:56:15.863Z,4104.3
2022-09-03T03:01:53.257Z,4105.9
2022-09-03T03:07:28.464Z,4104.1
2022-09-03T03:13:03.191Z,4101.7
2022-09-03T03:18:38.031Z,4102.9
2022-09-03T03:24:34.915Z,4100.6
2022-09-03T03:30:08.529Z,4103.4
2022-09-03T03:35:43.799Z,4101.9
2022-09-03T03:41:18.582Z,4103.6
2022-09-03T03:46:53.432Z,4102.9
2022-09-03T03:52:28.268Z,4100.2
2022-09-03T03:58:03.488Z,4098.1
2022-09-03T04:03:39.768Z,4101.6
2022-09-03T04:09:14.389Z,4098.4
2022-09-03T04:14:49.367Z,4099.6
2022-09-03T04:20:24.275Z,4100.7
2022-09-03T04:26:20.676Z,4098.2
2022-09-03T04:31:54.300Z,4099.9
2022-09-03T04:37:29.225Z,4099.6
2022-09-03T04:43:04.161Z,4099.4
2022-09-03T04:48:40.234Z,4098.9
2022-09-03T04:54:14.979Z,4097.4
2022-09-03T04:59:50.030Z,4098.1
2022-09-03T05:05:24.761Z,4097.2
2022-09-03T05:10:59.587Z,4096.5
2022-09-03T05:16:35.806Z,4099.1
2022-09-03T05:22:11.785Z,4097.7
2022-09-03T05:27:46.564Z,4095.7
2022-09-03T05:33:21.244Z,4096.9
2022-09-03T05:38:58.849Z,4096.2
2022-09-03T05:44:34.045Z,4097.9
2022-09-03T05:50:09.960Z,4095
2022-09-03T05:55:47.657Z,4096.7
2022-09-03T06:01:22.292Z,4097.4
2022-09-03T06:06:57.292Z,4095.4
2022-09-03T06:12:38.017Z,4100.7
2022-09-03T06:18:12.819Z,4106.3
2022-09-03T06:24:10.128Z,4102.2
2022-09-03T06:29:42.794Z,4103.2
2022-09-03T06:35:17.796Z,4102.6
2022-09-03T06:40:52.722Z,4108.8
2022-09-03T06:46:27.511Z,4106.4
2022-09-03T06:52:05.492Z,4106.8
2022-09-03T06:57:40.599Z,4111.1
2022-09-03T07:03:15.229Z,4114.3
2022-09-03T07:08:58.964Z,4111
2022-09-03T07:14:34.901Z,4120
2022-09-03T07:20:10.538Z,4122
2022-09-03T07:26:07.463Z,4126.9
2022-09-03T07:31:42.061Z,4132.1
2022-09-03T07:37:16.872Z,4134.1
2022-09-03T07:42:56.187Z,4136.4
2022-09-03T07:48:44.015Z,4155.2
2022-09-03T07:54:19.895Z,4154.2
2022-09-03T07:59:54.688Z,4210.4
2022-09-03T08:05:31.631Z,4215.3
2022-09-03T08:11:07.116Z,4189.3
2022-09-03T08:17:03.897Z,4190
2022-09-03T08:22:37.684Z,4208.4
2022-09-03T08:28:12.659Z,4217
2022-09-03T08:33:47.518Z,4197.2
2022-09-03T08:39:23.010Z,4212.6
2022-09-03T08:44:58.312Z,4215.3
2022-09-03T08:50:33.119Z,4207.3
2022-09-03T08:56:08.170Z,4174.8
2022-09-03T09:01:45.225Z,4181.8
2022-09-03T09:07:20.727Z,4182.5
2022-09-03T09:12:55.530Z,4185.7
2022-09-03T09:18:30.588Z,4192.4
2022-09-03T09:24:27.201Z,4180.3
2022-09-03T09:30:01.039Z,4193.2
2022-09-03T09:35:36.080Z,4208.6
2022-09-03T09:41:11.884Z,4191.2
2022-09-03T09:46:55.772Z,4183.5
2022-09-03T09:52:30.573Z,4205.1
2022-09-03T09:58:05.582Z,4191.7
2022-09-03T10:03:41.430Z,4192.4
2022-09-03T10:09:18.126Z,4208.4
2022-09-03T10:14:53.086Z,4194.4
2022-09-03T10:20:28.182Z,4209.6
2022-09-03T10:26:32.898Z,4203.2
2022-09-03T10:32:06.853Z,4198.7
2022-09-03T10:38:03.622Z,4203.1
2022-09-03T10:43:38.585Z,4210.4
2022-09-03T10:49:13.511Z,4193.9
2022-09-03T10:54:49.575Z,4216.1
2022-09-03T11:00:24.690Z,4209.6
2022-09-03T11:05:59.599Z,4200.2
2022-09-03T11:11:35.075Z,4205.6
2022-09-03T11:17:09.919Z,4209.6
2022-09-03T11:22:44.772Z,4205.4
2022-09-03T11:28:20.770Z,4204.8
2022-09-03T11:33:55.489Z,4199.7
2022-09-03T11:39:32.278Z,4205.1
2022-09-03T11:45:11.469Z,4211.6
2022-09-03T11:50:47.575Z,4204.9
2022-09-03T11:56:22.392Z,4200.9
2022-09-03T12:02:02.224Z,4211.6
2022-09-03T12:07:37.365Z,4203.9
2022-09-03T12:13:12.271Z,4218
2022-09-03T12:18:47.096Z,4201.1
2022-09-03T12:24:44.001Z,4220.8
2022-09-03T12:30:18.791Z,4203.1
2022-09-03T12:36:02.043Z,4221.8
2022-09-03T12:41:40.021Z,4224
2022-09-03T12:47:45.849Z,4230.5
2022-09-03T12:53:21.166Z,4213.8
2022-09-03T12:59:17.881Z,4214.6
2022-09-03T13:04:54.230Z,4228
2022-09-03T13:10:29.383Z,4221.5
2022-09-03T13:16:05.652Z,4217.3
2022-09-03T13:21:40.437Z,4224.5
2022-09-03T13:27:15.313Z,4218.3
2022-09-03T13:32:50.112Z,4212.5
2022-09-03T13:38:47.777Z,4209.9
2022-09-03T13:44:21.643Z,4221.7
2022-09-03T13:50:18.622Z,4209.8
2022-09-03T13:55:52.198Z,4215.5
2022-09-03T14:01:28.884Z,4223.8
2022-09-03T14:07:04.062Z,4220.2
2022-09-03T14:12:38.972Z,4219.7
2022-09-03T14:18:14.604Z,4229.4
2022-09-03T14:24:11.107Z,4227
2022-09-03T14:29:44.832Z,4222.3
2022-09-03T14:35:20.904Z,4215
2022-09-03T14:41:17.727Z,4227.2
2022-09-03T14:46:51.500Z,4224
2022-09-03T14:52:26.362Z,4215.8
2022-09-03T14:58:02.212Z,4222.3
2022-09-03T15:03:37.343Z,4217.1
2022-09-03T15:09:12.414Z,4217.6
2022-09-03T15:14:51.203Z,4217.7
2022-09-03T15:20:47.844Z,4216.3
2022-09-03T15:26:43.405Z,4211.5
2022-09-03T15:32:18.051Z,4212.5
2022-09-03T15:37:52.848Z,4208.4
2022-09-03T15:43:27.857Z,4211.8
2022-09-03T15:49:02.696Z,4211.3
2022-09-03T15:54:37.965Z,4218.3
2022-09-03T16:00:14.984Z,4216.6
2022-09-03T16:06:18.305Z,4218
2022-09-03T16:11:52.017Z,4206.1
2022-09-03T16:17:26.855Z,4213.6
2022-09-03T16:23:01.568Z,4224.9
2022-09-03T16:28:36.585Z,4216
2022-09-03T16:34:19.949Z,4221
2022-09-03T16:39:58.009Z,4219.2
2022-09-03T16:45:33.810Z,4214.1
2022-09-03T16:51:09.005Z,4207.3
2022-09-03T16:56:43.798Z,4206.6
2022-09-03T17:02:44.163Z,4209.8
2022-09-03T17:08:19.337Z,4206.3
2022-09-03T17:13:54.529Z,4202.6
2022-09-03T17:19:29.519Z,4208.8
2022-09-03T17:25:04.755Z,4209.9
2022-09-03T17:30:39.670Z,4209.9
2022-09-03T17:36:14.627Z,4207.3
2022-09-03T17:41:50.625Z,4207.3
2022-09-03T17:47:29.670Z,4209.1
2022-09-03T17:53:08.632Z,4208.9
2022-09-03T17:58:43.779Z,4211.1
2022-09-03T18:04:19.535Z,4206.6
2022-09-03T18:09:54.910Z,4202.7
2022-09-03T18:15:29.742Z,4204.6
2022-09-03T18:21:32.659Z,4202.1
2022-09-03T18:27:12.073Z,4200.7
2022-09-03T18:32:52.047Z,4202.7
2022-09-03T18:38:27.997Z,4201.1
2022-09-03T18:44:02.776Z,4200.7
2022-09-03T18:49:37.925Z,4198.6
2022-09-03T18:55:12.593Z,4200.7
2022-09-03T19:00:47.666Z,4200.2
2022-09-03T19:06:25.426Z,4198.7
2022-09-03T19:12:01.955Z,4199.2
2022-09-03T19:17:36.977Z,4201.6
2022-09-03T19:23:12.730Z,4201.4
2022-09-03T19:28:47.587Z,4198.2
2022-09-03T19:34:22.619Z,4198.7
2022-09-03T19:39:58.402Z,4198.9
2022-09-03T19:45:34.355Z,4198.6
2022-09-03T19:51:09.428Z,4198.2
2022-09-03T19:56:44.185Z,4198.6
2022-09-03T20:02:20.944Z,4197.4
2022-09-03T20:07:56.320Z,4196
2022-09-03T20:13:31.145Z,4197.2
2022-09-03T20:19:06.022Z,4196
2022-09-03T20:25:02.802Z,4195.9
2022-09-03T20:30:36.447Z,4196.7
2022-09-03T20:36:11.264Z,4196
2022-09-03T20:41:47.015Z,4193.7
2022-09-03T20:47:21.720Z,4194.5
2022-09-03T20:52:56.557Z,4195.5
2022-09-03T20:58:31.281Z,4193.7
2022-09-03T21:04:06.082Z,4194.9
2022-09-03T21:09:41.019Z,4195.9
2022-09-03T21:15:17.054Z,4195
2022-09-03T21:20:52.159Z,4192
2022-09-03T21:26:27.212Z,4192.7
2022-09-03T21:32:03.048Z,4192
2022-09-03T21:37:37.971Z,4193.2
2022-09-03T21:43:12.931Z,4194.2
2022-09-03T21:48:47.798Z,4192.5
2022-09-03T21:54:22.810Z,4191.5
2022-09-03T21:59:57.719Z,4191.5
2022-09-03T22:05:41.249Z,4190.9
2022-09-03T22:11:17.646Z,4188
2022-09-03T22:16:53.729Z,4188.3
2022-09-03T22:22:29.529Z,4189
2022-09-03T22:28:04.325Z,4189.8
2022-09-03T22:33:39.174Z,4188.7
2022-09-03T22:39:14.032Z,4189.2
2022-09-03T22:44:48.883Z,4191.9
2022-09-03T22:50:24.042Z,4186.3
2022-09-03T22:55:58.946Z,4185.3
2022-09-03T23:01:34.830Z,4187.3
2022-09-03T23:07:31.466Z,4183.6
2022-09-03T23:13:05.179Z,4182.3
2022-09-03T23:19:02.195Z,4181.6
2022-09-03T23:24:36.169Z,4181
2022-09-03T23:30:10.943Z,4185.5
2022-09-03T23:35:45.697Z,4183.5
2022-09-03T23:41:26.777Z,4183.8
2022-09-03T23:47:01.616Z,4181.6
2022-09-03T23:52:37.281Z,4185
2022-09-03T23:58:12.012Z,4181.8
